Accueil
METAR-TAF:

METAR-TAF

Aéroports :

Aéroport Sandro-Pertini de Turin Caselle

Turin, Italie

latitude: 45-13N, longitude: 007-39E, altitude: 301 m

Observation

Le bulletin a été fait il y a 24 minutes, à 20:50 UTC
Vent 4 kt de nord-ouest
Température 24°C
Humidité 65%
Pression 1016 hPa
Visibilité 10 km ou plus
Nuages épars à une hauteur de 6000 ft

METAR: LIMF 162050Z 31004KT 9999 SCT060 24/17 Q1016

Heure: 23:14 (21:14 UTC)

Prévision

Le bulletin a été fait il y a 4 heures et 14 minutes, à 17:00 UTC
Prévision valable du 16 à 18 UTC au 17 à 18 UTC
Vent 5 kt de direction variable
Visibilité 10 km ou plus
Nuages épars à une hauteur de 5000 ft

TAF: LIMF 161700Z 1618/1718 VRB05KT 9999 SCT050

Observations et prévisions météorologiques de plus de 4000 aéroports (messages METAR et TAF).

Les stations disponibles sont représentées par des disques jaunes et rouges sur la carte.

Passer la souris dessus pour voir le nom de la station.

Cliquer dessus pour voir les observations et prévisions météorologiques.

Pour changer de carte: cliquez sur les boutons verts avec une croix noire pour zoomer, sur le bouton vert avec un tiret pour effectuer un zoom arrière, ou sur les flèches vertes pour les cartes adjacentes.


METAR-TAF: